DW9948 Weather Reports


Display with metric or nautical units.
time (UTC)temp
F
wind
direction
speed
MPH
gust
MPH
rain 1hr
in
rain 24hr
in
rain mn
in
humidity
%
barometer
mb
20260906180804 103 102 2.0 7.0 0.00 0.00 0.00 29 1011.9
20260906175804 103 179 3.0 6.0 0.00 0.00 0.00 28 1012.2
20260906174803 103 60 1.0 5.0 0.00 0.00 0.00 28 1012.5
20260906173804 105 70 1.0 5.0 0.00 0.00 0.00 29 1012.6
20260906171804 104 98 1.0 5.0 0.00 0.00 0.00 31 1013.0
20260906170804 102 344 1.0 6.0 0.00 0.00 0.00 34 1013.2
20260906165804 101 180 2.0 6.0 0.00 0.00 0.00 33 1013.3
20260906163804 100 76 1.0 5.0 0.00 0.00 0.00 37 1013.4
20260906161804 97 72 2.0 6.0 0.00 0.00 0.00 39 1013.5
20260906155807 95 41 1.0 5.0 0.00 0.00 0.00 43 1013.7
20260906154809 94 341 1.0 2.0 0.00 0.00 0.00 44 1013.6
20260906154051 93 328 0.0 5.0 0.00 0.00 0.00 46 1013.6
20260906151804 92 302 0.0 1.0 0.00 0.00 0.00 49 1013.6
20260906150804 91 244 0.0 0.0 0.00 0.00 0.00 50 1013.5
20260906145803 89 228 0.0 0.0 0.00 0.00 0.00 53 1013.6
20260906144804 87 125 0.0 1.0 0.00 0.00 0.00 57 1013.5
20260906142803 84 129 0.0 1.0 0.00 0.00 0.00 60 1013.4
20260906141803 83 141 0.0 1.0 0.00 0.00 0.00 62 1013.4
20260906140804 82 132 2.0 6.0 0.00 0.00 0.00 64 1013.4
20260906135803 81 106 0.0 5.0 0.00 0.00 0.00 65 1013.3
20260906134804 80 145 0.0 0.0 0.00 0.00 0.00 68 1013.3
20260906130804 76 58 0.0 0.0 0.00 0.00 0.00 75 1013.2
20260906125804 76 58 0.0 0.0 0.00 0.00 0.00 76 1013.0
20260906124804 75 58 0.0 0.0 0.00 0.00 0.00 76 1012.8
20260906122804 75 58 0.0 0.0 0.00 0.00 0.00 77 1012.5
20260906120804 74 58 0.0 0.0 0.00 0.00 0.00 78 1012.4
20260906115804 74 57 0.0 0.0 0.00 0.00 0.00 78 1012.2
20260906114804 74 58 0.0 0.0 0.00 0.00 0.00 78 1012.0
20260906113804 74 58 0.0 0.0 0.00 0.00 0.00 77 1012.0
20260906112803 75 58 0.0 0.0 0.00 0.00 0.00 76 1012.0
20260906105803 75 58 0.0 0.0 0.00 0.00 0.00 74 1011.9
20260906103804 76 58 0.0 0.0 0.00 0.00 0.00 73 1011.9
20260906102804 76 58 0.0 0.0 0.00 0.00 0.00 72 1011.9
20260906101804 77 58 0.0 0.0 0.00 0.00 0.00 71 1011.9
20260906095804 78 58 0.0 0.0 0.00 0.00 0.00 69 1011.7
20260906093804 78 58 0.0 0.0 0.00 0.00 0.00 68 1011.6
20260906092804 79 58 0.0 0.0 0.00 0.00 0.00 68 1011.6
20260906090804 79 58 0.0 0.0 0.00 0.00 0.00 66 1011.6
20260906085804 80 58 0.0 0.0 0.00 0.00 0.00 65 1011.5
20260906083804 80 59 0.0 0.0 0.00 0.00 0.00 65 1011.4
20260906080804 81 59 0.0 0.0 0.00 0.00 0.00 63 1011.4
20260906075804 81 61 0.0 0.0 0.00 0.00 0.00 63 1011.4
20260906074804 81 63 0.0 0.0 0.00 0.00 0.00 62 1011.4
20260906073803 82 70 0.0 0.0 0.00 0.00 0.00 61 1011.3
20260906072804 82 115 0.0 1.0 0.00 0.00 0.00 61 1011.3
20260906071804 81 59 0.0 2.0 0.00 0.00 0.00 61 1011.3
20260906070804 81 46 0.0 1.0 0.00 0.00 0.00 62 1011.4
20260906065803 80 33 0.0 1.0 0.00 0.00 0.00 63 1011.4
20260906064804 80 27 0.0 0.0 0.00 0.00 0.00 63 1011.4
20260906063804 81 27 0.0 1.0 0.00 0.00 0.00 64 1011.5
20260906062804 81 13 0.0 0.0 0.00 0.00 0.00 64 1011.6
20260906061805 81 13 0.0 1.0 0.00 0.00 0.00 63 1011.5
20260906055804 81 13 0.0 1.0 0.00 0.00 0.00 63 1011.6
20260906054804 82 13 0.0 0.0 0.00 0.00 0.00 62 1011.7
20260906053804 82 13 0.0 1.0 0.00 0.00 0.00 62 1011.6
20260906052804 82 13 0.0 1.0 0.00 0.00 0.00 62 1011.7
20260906051804 82 38 0.0 1.0 0.00 0.00 0.00 63 1011.7
20260906050836 82 38 0.0 2.0 0.00 0.00 0.00 63 1011.7
20260906045804 82 30 0.0 1.0 0.00 0.00 0.00 64 1011.5
20260906044804 82 30 0.0 1.0 0.00 0.00 0.00 65 1011.5
20260906043804 81 352 0.0 0.0 0.00 0.00 0.00 66 1011.6
20260906042804 81 352 0.0 0.0 0.00 0.00 0.00 67 1011.6
20260906041804 81 352 0.0 0.0 0.00 0.00 0.00 66 1011.7
20260906040806 82 352 2.0 2.0 0.00 0.00 0.00 64 1011.7
20260906035804 82 108 0.0 0.0 0.00 0.00 0.00 63 1011.6
20260906034804 82 108 0.0 0.0 0.00 0.00 0.00 62 1011.6
20260906033804 83 108 0.0 0.0 0.00 0.00 0.00 62 1011.5
20260906032804 83 108 0.0 0.0 0.00 0.00 0.00 60 1011.3
20260906030804 84 108 0.0 0.0 0.00 0.00 0.00 58 1011.1
20260906025804 84 108 0.0 0.0 0.00 0.00 0.00 57 1011.0
20260906024804 85 108 0.0 0.0 0.00 0.00 0.00 57 1010.9
20260906023804 86 108 0.0 0.0 0.00 0.00 0.00 54 1010.8
20260906022804 86 108 0.0 0.0 0.00 0.00 0.00 53 1010.6
20260906021804 86 108 0.0 0.0 0.00 0.00 0.00 52 1010.5
20260906020804 87 108 0.0 0.0 0.00 0.00 0.00 52 1010.4
20260906015804 87 108 0.0 0.0 0.00 0.00 0.00 51 1010.3
20260906014804 88 108 0.0 0.0 0.00 0.00 0.00 49 1010.2
20260906013804 89 108 0.0 0.0 0.00 0.00 0.00 48 1010.1
20260906012804 89 108 0.0 0.0 0.00 0.00 0.00 46 1010.0
20260906011804 90 108 0.0 0.0 0.00 0.00 0.00 45 1010.0
20260906010804 91 108 0.0 1.0 0.00 0.00 0.00 44 1009.9
20260906005804 92 108 0.0 0.0 0.00 0.00 0.00 43 1009.9
20260906004804 93 108 0.0 0.0 0.00 0.00 0.00 42 1009.9
20260906002804 95 108 0.0 0.0 0.00 0.00 0.00 38 1010.0
20260906001804 96 108 0.0 0.0 0.00 0.00 0.00 37 1010.0
20260906000804 97 109 0.0 1.0 0.00 0.00 0.00 36 1010.0
20260905234804 98 127 0.0 2.0 0.00 0.00 0.00 34 1009.9
20260905233804 99 135 0.0 1.0 0.00 0.00 0.00 33 1009.8
20260905232804 99 22 0.0 1.0 0.00 0.00 0.00 32 1009.8
20260905231804 100 60 0.0 5.0 0.00 0.00 0.00 32 1009.7
20260905230805 100 121 0.0 2.0 0.00 0.00 0.00 32 1009.7
20260905224804 101 133 2.0 5.0 0.00 0.00 0.00 30 1009.8
20260905223804 102 63 0.0 2.0 0.00 0.00 0.00 31 1009.8
20260905221834 102 148 0.0 2.0 0.00 0.00 0.00 29 1009.9
20260905220804 102 49 0.0 5.0 0.00 0.00 0.00 29 1009.9
20260905215804 102 128 1.0 5.0 0.00 0.00 0.00 29 1010.1
20260905213804 102 70 1.0 7.0 0.00 0.00 0.00 30 1010.2
20260905212804 102 64 1.0 5.0 0.00 0.00 0.00 31 1010.2
20260905211804 101 172 2.0 5.0 0.00 0.00 0.00 31 1010.4
20260905210804 100 172 0.0 5.0 0.00 0.00 0.00 32 1010.6
20260905205804 100 265 0.0 1.0 0.00 0.00 0.00 32 1010.8
20260905202804 102 146 1.0 5.0 0.00 0.00 0.00 32 1011.2
20260905201804 103 141 3.0 8.0 0.00 0.00 0.00 31 1011.2
20260905195804 102 303 0.0 6.0 0.00 0.00 0.00 31 1011.5
20260905194804 101 158 2.0 6.0 0.00 0.00 0.00 34 1011.6
20260905193804 100 105 0.0 5.0 0.00 0.00 0.00 34 1011.8
20260905190804 101 176 3.0 7.0 0.00 0.00 0.00 33 1012.1
20260905185804 101 171 3.0 8.0 0.00 0.00 0.00 33 1012.3
20260905184803 102 205 1.0 8.0 0.00 0.00 0.00 33 1012.5
20260905183804 103 186 1.0 6.0 0.00 0.00 0.00 31 1012.6
20260905182804 102 102 1.0 6.0 0.00 0.00 0.00 33 1012.8